Time;durP1;ratioP1;P1;durP2;ratioP2;P2;SDS_P1;SDS_P2;PMS_P1;PMS_P2;Temp;Humidity;BMP_temperature;BMP_pressure;BME280_temperature;BME280_humidity;BME280_pressure;Samples;Min_cycle;Max_cycle;Signal;HPM_P1;HPM_P2
2021/05/23 00:00:42;;;;;;;1.70;0.40;;;;;;;16.86;47.94;99969.99;1655461;85;20645;-93
2021/05/23 00:03:13;;;;;;;3.20;0.75;;;;;;;16.81;48.21;99976.58;1637480;85;21078;-93
2021/05/23 00:05:43;;;;;;;1.47;0.50;;;;;;;16.80;48.29;99971.43;1671484;85;21820;-91
2021/05/23 00:08:16;;;;;;;1.87;0.57;;;;;;;16.78;48.57;99966.28;1650713;85;21188;-92
2021/05/23 00:10:52;;;;;;;4.42;0.57;;;;;;;16.77;48.57;99972.73;1682197;84;21696;-92
2021/05/23 00:13:21;;;;;;;;;;;;;;;16.77;48.95;99979.46;1684460;84;21169;-93
2021/05/23 00:16:03;;;;;;;3.12;0.53;;;;;;;16.78;49.34;99981.62;1663348;85;20235;-94
2021/05/23 00:18:37;;;;;;;1.00;0.98;;;;;;;16.71;50.10;99987.16;1645611;85;21062;-94
2021/05/23 00:21:05;;;;;;;1.72;1.17;;;;;;;16.64;50.34;99982.42;1679901;84;21080;-93
2021/05/23 00:23:33;;;;;;;1.77;1.00;;;;;;;16.63;50.55;99985.65;1672621;84;21060;-93
2021/05/23 00:26:02;;;;;;;3.85;0.90;;;;;;;16.65;51.01;99980.00;1706160;83;21104;-93
2021/05/23 00:28:30;;;;;;;1.87;1.07;;;;;;;16.66;51.25;99981.66;1720155;83;21120;-93
2021/05/23 00:30:59;;;;;;;1.02;0.88;;;;;;;16.67;51.68;99990.00;1694652;84;21044;-93
2021/05/23 00:33:27;;;;;;;0.93;0.62;;;;;;;16.67;51.51;99990.84;1709167;83;21586;-93
2021/05/23 00:35:58;;;;;;;0.82;0.65;;;;;;;16.67;53.09;99988.15;1716348;80;21147;-92
2021/05/23 00:38:27;;;;;;;2.08;0.60;;;;;;;16.63;55.18;99991.53;1719583;79;21112;-92
2021/05/23 00:40:55;;;;;;;3.60;0.90;;;;;;;16.54;55.44;99987.88;1679126;85;21204;-92
2021/05/23 00:43:22;;;;;;;3.92;1.15;;;;;;;16.44;57.69;99978.75;1695107;83;21617;-92
2021/05/23 00:45:50;;;;;;;1.80;0.88;;;;;;;16.27;58.66;99984.84;1704745;83;21571;-92
2021/05/23 00:48:20;;;;;;;2.27;0.68;;;;;;;16.14;59.26;99989.95;1711629;82;21652;-93
2021/05/23 00:50:48;;;;;;;2.87;0.30;;;;;;;16.13;60.55;99990.17;1714267;83;21190;-92
2021/05/23 00:53:15;;;;;;;1.03;0.50;;;;;;;16.06;61.57;99987.59;1696311;84;21207;-93
2021/05/23 00:55:41;;;;;;;1.10;0.60;;;;;;;15.93;61.54;99995.34;1691892;85;21704;-93
2021/05/23 00:58:11;;;;;;;1.67;0.62;;;;;;;15.82;62.95;99996.14;1686696;85;21033;-92
2021/05/23 01:00:46;;;;;;;5.67;0.75;;;;;;;15.72;63.45;99991.84;1711795;81;20969;-92
2021/05/23 01:03:35;;;;;;;4.12;0.62;;;;;;;15.62;64.16;100000.47;1698116;84;21007;-92
2021/05/23 01:06:08;;;;;;;1.42;0.57;;;;;;;15.47;64.26;100008.95;1680713;84;21114;-93
2021/05/23 01:08:38;;;;;;;0.45;0.40;;;;;;;15.38;66.12;100009.78;1684885;84;21685;-92
2021/05/23 01:11:22;;;;;;;2.65;0.82;;;;;;;15.31;66.85;100007.73;1686793;83;21131;-93
2021/05/23 01:14:05;;;;;;;0.70;0.57;;;;;;;15.20;66.84;100013.87;1666988;85;21174;-92
2021/05/23 01:16:51;;;;;;;0.82;0.53;;;;;;;15.03;67.62;100003.44;1677300;84;21119;-93
2021/05/23 01:19:58;;;;;;;2.98;0.45;;;;;;;14.92;68.42;100003.70;1655832;85;21103;-93
2021/05/23 01:22:55;;;;;;;1.05;0.47;;;;;;;14.84;68.75;99998.09;1676768;85;21071;-92
2021/05/23 01:25:28;;;;;;;2.35;0.45;;;;;;;14.81;68.87;100000.42;1648511;86;21210;-92
2021/05/23 01:28:00;;;;;;;1.32;0.80;;;;;;;14.78;69.54;100003.83;1695293;83;21172;-92
2021/05/23 01:30:31;;;;;;;0.42;0.42;;;;;;;14.73;69.84;100008.22;1695381;83;21179;-92
2021/05/23 01:33:08;;;;;;;3.35;0.57;;;;;;;14.68;70.34;100020.17;1695017;83;21135;-92
2021/05/23 01:35:41;;;;;;;2.15;0.45;;;;;;;14.67;70.48;100017.17;1689223;83;21135;-93
2021/05/23 01:38:28;;;;;;;3.50;0.42;;;;;;;14.74;70.21;100019.27;1664405;85;21732;-91
2021/05/23 01:41:05;;;;;;;1.82;0.55;;;;;;;14.75;70.47;100016.89;1698457;84;21167;-91
2021/05/23 01:43:36;;;;;;;1.02;0.70;;;;;;;14.69;71.22;100027.16;1700546;84;21174;-92
2021/05/23 01:46:07;;;;;;;1.75;0.50;;;;;;;14.63;71.25;100032.89;1700036;84;21044;-92
2021/05/23 01:48:38;;;;;;;1.02;0.42;;;;;;;14.64;71.59;100028.37;1700698;84;21079;-93
2021/05/23 01:51:08;;;;;;;2.58;0.47;;;;;;;14.71;71.08;100025.91;1700334;84;21684;-93
2021/05/23 01:53:37;;;;;;;4.58;0.70;;;;;;;14.75;71.47;100026.28;1700011;84;21156;-94
2021/05/23 01:56:09;;;;;;;1.15;0.45;;;;;;;14.74;71.48;100026.78;1698802;80;21013;-92
2021/05/23 01:58:36;;;;;;;0.45;0.45;;;;;;;14.65;71.80;100025.97;1672588;82;21088;-93
2021/05/23 02:01:05;;;;;;;2.80;0.50;;;;;;;14.66;71.74;100036.48;1685761;83;21114;-93
2021/05/23 02:03:33;;;;;;;0.50;0.50;;;;;;;14.69;72.17;100029.84;1670738;84;21612;-93
2021/05/23 02:06:03;;;;;;;2.05;0.62;;;;;;;14.71;71.66;100036.64;1707219;83;21224;-93
2021/05/23 02:08:32;;;;;;;0.98;0.60;;;;;;;14.70;71.66;100047.59;1698785;83;21063;-92
2021/05/23 02:11:08;;;;;;;1.47;0.72;;;;;;;14.69;71.54;100045.94;1711410;83;21819;-93
2021/05/23 02:13:37;;;;;;;0.85;0.70;;;;;;;14.45;71.99;100017.59;1679408;83;21140;-92
2021/05/23 02:16:08;;;;;;;1.37;0.65;;;;;;;14.65;72.09;100053.60;1686607;83;22806;-92
2021/05/23 02:18:40;;;;;;;2.65;0.95;;;;;;;14.68;72.22;100051.83;1688801;83;21143;-93
2021/05/23 02:21:07;;;;;;;2.58;0.53;;;;;;;14.74;72.29;100056.30;1659457;85;21671;-93
2021/05/23 02:23:34;;;;;;;1.47;0.62;;;;;;;14.76;72.35;100058.23;1663499;84;21042;-93
2021/05/23 02:26:01;;;;;;;1.37;0.60;;;;;;;14.75;72.30;100057.95;1654393;84;21101;-93
2021/05/23 02:28:28;;;;;;;1.27;0.65;;;;;;;14.73;72.49;100060.03;1669670;83;21177;-92
2021/05/23 02:30:57;;;;;;;0.95;0.82;;;;;;;14.71;72.75;100064.81;1666312;84;21238;-93
2021/05/23 02:33:28;;;;;;;1.45;1.35;;;;;;;14.73;72.76;100064.06;1667944;85;21155;-92
2021/05/23 02:35:58;;;;;;;1.47;1.00;;;;;;;14.79;72.54;100073.08;1654669;85;21146;-93
2021/05/23 02:38:26;;;;;;;1.72;1.22;;;;;;;14.83;72.51;100066.75;1677630;83;21198;-92
2021/05/23 02:40:54;;;;;;;2.10;2.00;;;;;;;14.79;72.88;100068.53;1651596;83;21775;-93
2021/05/23 02:43:23;;;;;;;2.20;2.05;;;;;;;14.72;73.13;100075.02;1656856;84;21246;-92
2021/05/23 02:45:52;;;;;;;2.58;1.60;;;;;;;14.66;73.77;100075.91;1691394;83;21036;-92
2021/05/23 02:48:20;;;;;;;4.05;1.50;;;;;;;14.64;73.45;100079.33;1684704;80;21207;-89
2021/05/23 02:50:53;;;;;;;3.33;1.10;;;;;;;14.68;73.38;100077.84;1708069;83;20980;-93
2021/05/23 02:53:21;;;;;;;5.22;1.40;;;;;;;14.69;73.03;100076.28;1689129;83;21118;-93
2021/05/23 02:55:50;;;;;;;1.98;1.77;;;;;;;14.74;72.94;100080.97;1673729;83;21049;-93
2021/05/23 02:58:18;;;;;;;1.92;1.60;;;;;;;14.77;72.79;100079.20;1681406;84;21227;-94
2021/05/23 03:00:47;;;;;;;1.98;1.32;;;;;;;14.81;72.55;100085.75;1674420;84;21082;-93
2021/05/23 03:03:15;;;;;;;3.45;1.60;;;;;;;14.89;72.36;100085.98;1675512;84;21151;-93
2021/05/23 03:05:44;;;;;;;1.70;1.40;;;;;;;14.97;72.41;100077.63;1697542;84;21423;-93
2021/05/23 03:08:13;;;;;;;4.35;2.10;;;;;;;14.97;72.80;100084.33;1675789;84;21148;-92
2021/05/23 03:10:52;;;;;;;2.27;2.17;;;;;;;14.94;72.29;100087.48;1676105;84;21797;-92
2021/05/23 03:13:20;;;;;;;3.77;2.08;;;;;;;14.91;72.25;100087.91;1642152;85;21148;-92
2021/05/23 03:15:49;;;;;;;1.70;1.60;;;;;;;14.90;72.03;100084.42;1682985;83;21119;-92
2021/05/23 03:18:16;;;;;;;3.67;1.55;;;;;;;14.94;71.84;100079.44;1708496;81;20985;-85
2021/05/23 03:20:44;;;;;;;1.40;1.30;;;;;;;14.99;71.75;100076.88;1694229;81;21006;-86
2021/05/23 03:23:11;;;;;;;3.80;0.95;;;;;;;15.02;71.50;100076.44;1642985;85;21172;-87
2021/05/23 03:25:39;;;;;;;2.05;0.90;;;;;;;15.01;71.29;100078.81;1636589;87;21763;-88
2021/05/23 03:28:09;;;;;;;2.20;0.85;;;;;;;15.01;71.20;100090.08;1618132;87;21128;-87
2021/05/23 03:30:42;;;;;;;0.80;0.65;;;;;;;15.02;70.97;100091.20;1646184;85;21187;-88
2021/05/23 03:33:10;;;;;;;1.57;0.62;;;;;;;15.02;70.61;100092.55;1648238;85;21104;-88
2021/05/23 03:35:38;;;;;;;0.80;0.80;;;;;;;15.05;70.35;100094.80;1693768;83;21695;-87
2021/05/23 03:38:07;;;;;;;1.60;0.70;;;;;;;15.11;69.92;100102.47;1670477;85;21127;-87
2021/05/23 03:40:35;;;;;;;1.50;0.62;;;;;;;15.17;69.61;100101.56;1693579;84;21144;-87
2021/05/23 03:43:03;;;;;;;1.30;0.68;;;;;;;15.21;69.43;100096.57;1705473;83;21215;-90
2021/05/23 03:45:29;;;;;;;2.60;0.50;;;;;;;15.20;69.27;100098.45;1637213;86;21075;-87
2021/05/23 03:47:56;;;;;;;2.25;0.72;;;;;;;15.18;69.30;100093.80;1688077;83;21203;-89
2021/05/23 03:50:24;;;;;;;0.60;0.60;;;;;;;15.18;69.45;100104.53;1674284;83;21127;-88
2021/05/23 03:52:56;;;;;;;1.90;0.40;;;;;;;15.22;68.80;100106.25;1688082;83;21147;-87
2021/05/23 03:55:24;;;;;;;0.80;0.80;;;;;;;15.29;67.75;100106.47;1698095;83;21036;-88
2021/05/23 03:57:50;;;;;;;0.40;0.20;;;;;;;15.32;66.89;100105.22;1692554;83;21134;-88
2021/05/23 04:00:18;;;;;;;;;;;;;;;15.31;66.96;100105.75;1703052;83;21055;-87
2021/05/23 04:02:48;;;;;;;0.30;0.20;;;;;;;15.34;67.21;100107.15;1687477;83;20223;-87
2021/05/23 04:05:15;;;;;;;3.17;0.20;;;;;;;15.32;67.56;100114.62;1693152;83;21218;-87
2021/05/23 04:07:41;;;;;;;0.75;0.20;;;;;;;15.40;67.08;100112.14;1696951;83;21077;-86
2021/05/23 04:10:10;;;;;;;0.28;0.23;;;;;;;15.70;67.36;100112.16;1700328;83;21179;-85
2021/05/23 04:12:41;;;;;;;1.57;0.72;;;;;;;16.27;65.63;100121.18;1696189;83;21139;-85
2021/05/23 04:15:08;;;;;;;0.75;0.30;;;;;;;16.69;64.17;100120.59;1676813;84;22453;-87
2021/05/23 04:17:36;;;;;;;1.30;0.20;;;;;;;16.84;62.90;100122.84;1708634;83;21060;-86
2021/05/23 04:20:10;;;;;;;0.68;0.25;;;;;;;17.10;62.58;100126.08;1699538;83;21106;-85
2021/05/23 04:22:37;;;;;;;0.57;0.40;;;;;;;17.76;60.43;100125.24;1701169;84;21048;-84
2021/05/23 04:25:08;;;;;;;0.90;0.37;;;;;;;18.61;57.83;100125.36;1696602;83;21123;-85
2021/05/23 04:27:36;;;;;;;1.00;0.28;;;;;;;18.94;56.47;100134.53;1701216;83;21238;-84
2021/05/23 04:30:05;;;;;;;0.25;0.23;;;;;;;19.06;55.81;100143.32;1695773;83;21119;-83
2021/05/23 04:32:32;;;;;;;0.75;0.13;;;;;;;19.01;55.36;100114.38;1684542;83;21080;-85
2021/05/23 04:34:58;;;;;;;1.15;0.40;;;;;;;19.32;54.60;100145.83;1681143;83;21135;-86
2021/05/23 04:37:24;;;;;;;3.00;0.20;;;;;;;19.32;53.96;100154.48;1649154;85;21125;-86
2021/05/23 04:39:51;;;;;;;2.85;0.20;;;;;;;19.21;53.98;100164.33;1635508;86;21676;-84
2021/05/23 04:42:19;;;;;;;1.05;0.45;;;;;;;19.19;54.20;100163.77;1651659;84;21084;-85
2021/05/23 04:44:45;;;;;;;0.55;0.20;;;;;;;19.19;54.21;100158.36;1644381;86;21065;-86
2021/05/23 04:47:11;;;;;;;;;;;;;;;19.31;53.07;100152.83;1620544;87;21072;-85
2021/05/23 04:49:40;;;;;;;2.60;0.25;;;;;;;19.15;52.88;100159.39;1617101;87;20177;-86
2021/05/23 04:52:07;;;;;;;0.78;0.15;;;;;;;18.86;53.45;100160.07;1608075;87;21172;-85
2021/05/23 04:54:35;;;;;;;2.37;0.30;;;;;;;18.74;54.31;100160.14;1605255;88;21154;-84
2021/05/23 04:57:04;;;;;;;0.20;0.17;;;;;;;18.77;54.03;100160.98;1626934;87;21068;-86
2021/05/23 04:59:33;;;;;;;3.55;0.30;;;;;;;18.83;54.05;100168.11;1636905;86;21133;-87
2021/05/23 05:02:00;;;;;;;3.80;0.20;;;;;;;19.11;54.12;100172.31;1611848;87;21088;-84
2021/05/23 05:04:27;;;;;;;0.47;0.20;;;;;;;19.51;52.85;100178.77;1642038;85;21118;-85
2021/05/23 05:06:53;;;;;;;0.68;0.30;;;;;;;19.91;51.61;100170.06;1643326;85;21082;-86
2021/05/23 05:09:19;;;;;;;0.65;0.20;;;;;;;20.26;49.94;100165.55;1650077;83;21208;-86
2021/05/23 05:11:45;;;;;;;;;;;;;;;20.51;49.44;100169.55;1652721;85;21160;-86
2021/05/23 05:14:12;;;;;;;0.40;0.20;;;;;;;20.79;48.32;100158.44;1649879;85;20214;-84
2021/05/23 05:16:40;;;;;;;1.27;0.23;;;;;;;21.01;48.27;100154.77;1642393;85;21073;-86
2021/05/23 05:19:08;;;;;;;0.72;0.30;;;;;;;21.39;47.94;100151.43;1652077;85;21159;-86
2021/05/23 05:21:35;;;;;;;0.62;0.20;;;;;;;21.88;46.07;100155.14;1648725;85;21044;-84
2021/05/23 05:24:03;;;;;;;2.25;0.20;;;;;;;22.28;44.92;100160.41;1650164;85;21625;-89
2021/05/23 05:26:29;;;;;;;1.27;0.30;;;;;;;22.67;43.08;100158.48;1643797;85;21352;-84
2021/05/23 05:28:55;;;;;;;0.50;0.10;;;;;;;22.79;42.46;100158.73;1654830;85;21828;-86
2021/05/23 05:31:22;;;;;;;1.65;0.25;;;;;;;22.88;42.12;100167.41;1613017;86;21150;-86
2021/05/23 05:33:48;;;;;;;0.20;0.10;;;;;;;22.96;42.16;100167.95;1609502;86;21350;-86
2021/05/23 05:36:14;;;;;;;;;;;;;;;22.94;42.11;100166.86;1641532;86;21093;-84
2021/05/23 05:38:40;;;;;;;0.55;0.10;;;;;;;22.91;42.50;100171.50;1640425;86;20243;-86
2021/05/23 05:41:06;;;;;;;0.82;0.33;;;;;;;22.81;42.43;100169.63;1634011;87;21140;-84
2021/05/23 05:43:32;;;;;;;0.37;0.10;;;;;;;22.86;42.09;100176.94;1635542;86;21713;-88
2021/05/23 05:45:58;;;;;;;0.50;0.20;;;;;;;22.93;42.16;100170.13;1628643;85;21062;-84
2021/05/23 05:48:24;;;;;;;1.15;0.30;;;;;;;22.88;42.18;100177.48;1629303;87;21073;-85
2021/05/23 05:50:52;;;;;;;0.75;0.10;;;;;;;22.60;42.59;100175.59;1629347;87;21129;-86
2021/05/23 05:53:20;;;;;;;0.85;0.13;;;;;;;22.17;42.35;100177.73;1634809;86;21184;-84
2021/05/23 05:55:46;;;;;;;0.40;0.10;;;;;;;22.01;42.68;100184.22;1644665;86;21069;-86
2021/05/23 05:58:12;;;;;;;0.10;0.10;;;;;;;22.03;44.35;100187.47;1642365;85;21045;-85
2021/05/23 06:00:38;;;;;;;1.75;0.33;;;;;;;22.37;42.59;100190.53;1645315;81;20982;-86
2021/05/23 06:03:05;;;;;;;0.20;0.10;;;;;;;22.43;41.53;100184.56;1657447;81;21029;-86
2021/05/23 06:05:31;;;;;;;0.47;0.10;;;;;;;22.30;42.45;100187.27;1646814;86;21080;-86
2021/05/23 06:07:57;;;;;;;4.58;0.10;;;;;;;21.99;42.82;100185.03;1635511;87;21675;-86
2021/05/23 06:10:24;;;;;;;0.10;0.10;;;;;;;21.86;43.09;100192.58;1634544;85;21717;-87
2021/05/23 06:12:51;;;;;;;2.37;0.30;;;;;;;21.85;43.33;100203.17;1628780;86;21710;-86
2021/05/23 06:15:19;;;;;;;0.15;0.10;;;;;;;21.92;42.36;100202.91;1646223;87;21109;-86
2021/05/23 06:17:45;;;;;;;1.22;0.20;;;;;;;21.64;42.07;100210.95;1627429;87;21109;-86
2021/05/23 06:20:13;;;;;;;0.68;0.23;;;;;;;21.39;43.02;100209.72;1628678;87;21125;-87
2021/05/23 06:22:43;;;;;;;0.20;0.10;;;;;;;21.03;43.15;100209.52;1650606;86;21683;-88
2021/05/23 06:25:10;;;;;;;0.80;0.20;;;;;;;20.78;43.52;100216.37;1653973;85;21137;-87
2021/05/23 06:27:38;;;;;;;0.20;0.20;;;;;;;20.79;43.45;100215.83;1653144;85;21160;-88
2021/05/23 06:30:08;;;;;;;1.40;1.30;;;;;;;20.54;43.96;100219.94;1641445;85;21196;-87
2021/05/23 06:32:35;;;;;;;0.23;0.20;;;;;;;20.26;45.19;100218.86;1630844;87;21128;-85
2021/05/23 06:35:00;;;;;;;0.80;0.37;;;;;;;20.15;45.16;100217.94;1653058;85;22175;-86
2021/05/23 06:37:27;;;;;;;1.17;0.80;;;;;;;20.11;44.75;100222.23;1657793;82;21710;-87
2021/05/23 06:39:55;;;;;;;;;;;;;;;20.19;44.99;100222.59;1667985;85;21188;-87
2021/05/23 06:42:21;;;;;;;0.70;0.15;;;;;;;20.42;44.82;100213.34;1654384;85;20301;-85
2021/05/23 06:44:48;;;;;;;2.60;0.10;;;;;;;20.71;44.25;100211.71;1647280;86;21629;-87
2021/05/23 06:47:14;;;;;;;1.22;0.60;;;;;;;21.04;44.98;100214.38;1646492;85;21588;-88
2021/05/23 06:49:41;;;;;;;;;;;;;;;21.45;42.38;100214.11;1648115;86;22462;-87
2021/05/23 06:52:07;;;;;;;0.57;0.20;;;;;;;21.52;42.47;100210.63;1652135;86;20248;-88
2021/05/23 06:54:33;;;;;;;0.55;0.10;;;;;;;21.29;43.41;100212.39;1637670;86;21516;-88
2021/05/23 06:57:00;;;;;;;0.65;0.33;;;;;;;21.08;42.21;100212.78;1647867;86;21534;-86
2021/05/23 06:59:26;;;;;;;0.72;0.20;;;;;;;21.02;41.97;100214.67;1653561;86;21136;-87
2021/05/23 07:01:52;;;;;;;1.10;0.10;;;;;;;21.08;41.22;100217.69;1665423;86;21585;-88
2021/05/23 07:04:18;;;;;;;;;;;;;;;21.22;42.78;100222.64;1693207;84;21683;-88
2021/05/23 07:06:46;;;;;;;0.50;0.40;;;;;;;21.36;40.82;100217.84;1679342;84;20215;-87
2021/05/23 07:09:12;;;;;;;2.00;0.10;;;;;;;21.32;41.38;100214.55;1685414;84;21677;-87
2021/05/23 07:11:40;;;;;;;2.83;0.20;;;;;;;21.30;41.25;100216.72;1678271;85;21617;-90
2021/05/23 07:14:07;;;;;;;0.45;0.20;;;;;;;21.36;39.91;100219.72;1665075;84;21188;-87
2021/05/23 07:16:35;;;;;;;1.57;0.10;;;;;;;21.34;38.88;100221.88;1676586;83;21185;-88
2021/05/23 07:19:02;;;;;;;0.30;0.20;;;;;;;21.38;39.80;100218.95;1646274;85;21590;-87
2021/05/23 07:21:28;;;;;;;0.70;0.28;;;;;;;21.52;38.93;100216.05;1643680;85;21678;-87
2021/05/23 07:23:54;;;;;;;0.47;0.10;;;;;;;21.52;38.93;100209.27;1672710;82;21068;-87
2021/05/23 07:26:20;;;;;;;;;;;;;;;21.58;39.88;100215.53;1660668;82;21136;-87
2021/05/23 07:28:46;;;;;;;2.15;0.20;;;;;;;21.78;40.00;100218.33;1655959;85;20260;-87
2021/05/23 07:31:14;;;;;;;2.45;0.42;;;;;;;21.63;39.57;100221.53;1652179;85;21159;-89
2021/05/23 07:33:41;;;;;;;0.30;0.20;;;;;;;21.30;40.25;100212.09;1665821;85;21179;-87
2021/05/23 07:36:10;;;;;;;0.45;0.10;;;;;;;21.04;39.41;100218.45;1672194;85;21196;-88
2021/05/23 07:38:37;;;;;;;0.30;0.10;;;;;;;20.74;39.77;100216.63;1648452;85;21186;-89
2021/05/23 07:41:06;;;;;;;0.10;0.10;;;;;;;20.49;40.03;100219.08;1623744;87;21295;-88
2021/05/23 07:43:32;;;;;;;1.47;0.25;;;;;;;20.31;40.53;100219.73;1634066;87;21095;-88
2021/05/23 07:45:59;;;;;;;0.25;0.10;;;;;;;20.19;40.39;100220.41;1677416;84;21042;-89
2021/05/23 07:51:36;;;;;;;0.98;0.33;;;;;;;19.80;41.25;100180.78;1897158;74;22828;-88
2021/05/23 07:54:03;;;;;;;1.25;0.17;;;;;;;19.98;41.14;100220.73;1835711;77;21116;-88
2021/05/23 07:56:30;;;;;;;0.90;0.15;;;;;;;19.97;40.92;100219.92;1789300;77;21666;-87
2021/05/23 07:58:56;;;;;;;;;;;;;;;20.03;41.48;100213.48;1776866;79;22339;-89
2021/05/23 08:01:22;;;;;;;0.10;0.10;;;;;;;20.10;42.16;100216.00;1777898;80;20242;-87
2021/05/23 08:03:48;;;;;;;0.85;0.17;;;;;;;20.07;40.49;100215.69;1773220;78;21629;-88
2021/05/23 08:06:16;;;;;;;1.22;0.10;;;;;;;20.03;41.39;100200.50;1771592;79;21262;-88
2021/05/23 08:08:44;;;;;;;0.35;0.25;;;;;;;20.09;41.39;100203.53;1713577;82;21257;-88
2021/05/23 08:11:10;;;;;;;0.42;0.28;;;;;;;20.17;41.76;100206.31;1725212;81;21107;-88
2021/05/23 08:13:36;;;;;;;0.98;0.20;;;;;;;20.27;40.98;100209.14;1736046;81;21057;-90
2021/05/23 08:16:05;;;;;;;0.60;0.28;;;;;;;20.31;41.21;100206.20;1733481;81;21668;-89
2021/05/23 08:18:31;;;;;;;0.20;0.20;;;;;;;20.24;39.62;100209.64;1727584;81;21079;-90
2021/05/23 08:21:02;;;;;;;;;;;;;;;20.21;40.33;100211.50;1734583;81;21055;-90
2021/05/23 08:23:31;;;;;;;0.40;0.30;;;;;;;20.18;40.08;100218.24;1716411;80;20239;-88
2021/05/23 08:25:58;;;;;;;0.20;0.20;;;;;;;20.06;40.13;100226.22;1726599;81;21291;-88
2021/05/23 08:28:30;;;;;;;0.20;0.20;;;;;;;20.04;40.69;100225.11;1726809;81;21109;-89
2021/05/23 08:30:56;;;;;;;0.62;0.10;;;;;;;19.97;39.13;100218.56;1736412;81;21272;-88
2021/05/23 08:33:22;;;;;;;0.42;0.10;;;;;;;19.95;39.01;100233.42;1724553;81;21703;-89
2021/05/23 08:35:49;;;;;;;0.28;0.20;;;;;;;19.95;39.22;100232.88;1711236;81;21702;-90
2021/05/23 08:38:15;;;;;;;;;;;;;;;19.95;39.31;100230.17;1722917;81;21082;-85
2021/05/23 08:40:41;;;;;;;0.40;0.10;;;;;;;20.02;39.32;100236.73;1713910;81;20204;-89
2021/05/23 08:43:09;;;;;;;0.50;0.10;;;;;;;19.99;38.59;100235.91;1701226;82;21113;-89
2021/05/23 08:45:38;;;;;;;0.60;0.10;;;;;;;20.00;38.63;100237.01;1725298;80;21002;-89
2021/05/23 08:48:05;;;;;;;2.60;0.23;;;;;;;20.06;37.96;100238.39;1760246;78;21058;-90
2021/05/23 08:50:32;;;;;;;0.20;0.20;;;;;;;20.13;37.69;100239.02;1744137;81;21873;-91
2021/05/23 08:53:00;;;;;;;0.40;0.20;;;;;;;20.22;37.60;100234.79;1762290;80;21242;-90
2021/05/23 08:55:28;;;;;;;0.50;0.10;;;;;;;20.34;37.84;100237.34;1755398;80;21083;-89
2021/05/23 08:57:59;;;;;;;0.88;0.10;;;;;;;20.52;37.97;100237.52;1744752;80;21113;-88
2021/05/23 09:00:27;;;;;;;1.30;0.20;;;;;;;20.63;37.65;100236.57;1740192;80;21034;-88
2021/05/23 09:02:57;;;;;;;1.05;0.33;;;;;;;20.71;37.67;100241.50;1739226;80;21153;-90
2021/05/23 09:05:34;;;;;;;3.08;0.30;;;;;;;20.71;38.18;100234.73;1741885;80;21066;-88
2021/05/23 09:08:05;;;;;;;1.95;0.20;;;;;;;20.75;38.42;100238.55;1725825;81;22191;-90
2021/05/23 09:10:36;;;;;;;0.40;0.13;;;;;;;20.78;37.96;100231.28;1719483;81;21135;-89
2021/05/23 09:13:03;;;;;;;1.35;0.30;;;;;;;20.84;37.56;100225.91;1750767;80;21177;-88
2021/05/23 09:15:30;;;;;;;0.80;0.10;;;;;;;20.91;37.02;100225.16;1746686;82;21101;-90
2021/05/23 09:18:12;;;;;;;0.70;0.20;;;;;;;20.95;36.72;100224.91;1720979;82;21105;-88
2021/05/23 09:20:41;;;;;;;2.62;0.50;;;;;;;21.00;35.80;100227.63;1731208;81;21055;-93
2021/05/23 09:23:18;;;;;;;2.47;0.90;;;;;;;20.94;35.65;100224.07;1706878;81;21941;-88
2021/05/23 09:25:45;;;;;;;0.45;0.42;;;;;;;20.83;35.03;100218.84;1721332;82;21134;-90
2021/05/23 09:28:12;;;;;;;0.50;0.20;;;;;;;20.73;35.65;100212.81;1729572;81;21105;-91
2021/05/23 09:30:46;;;;;;;1.77;0.13;;;;;;;20.75;35.79;100216.89;1734122;81;21697;-90
2021/05/23 09:33:19;;;;;;;2.58;0.25;;;;;;;20.70;35.51;100208.75;1710098;82;21261;-89
2021/05/23 09:35:46;;;;;;;1.00;0.10;;;;;;;20.65;35.16;100209.24;1703472;83;21121;-89
2021/05/23 09:38:16;;;;;;;3.62;0.10;;;;;;;20.67;34.81;100212.50;1724187;81;21550;-90
2021/05/23 09:40:44;;;;;;;0.45;0.23;;;;;;;20.60;34.32;100220.28;1713013;81;21167;-89
2021/05/23 09:43:20;;;;;;;2.73;0.10;;;;;;;20.52;34.30;100226.15;1758867;80;21118;-90
2021/05/23 09:45:53;;;;;;;2.27;0.13;;;;;;;20.45;34.61;100222.83;1743491;80;21150;-87
2021/05/23 09:48:23;;;;;;;0.20;0.10;;;;;;;20.45;34.90;100224.73;1713700;81;21130;-87
2021/05/23 09:50:54;;;;;;;0.23;0.10;;;;;;;20.41;35.15;100224.42;1703458;81;21064;-90
2021/05/23 09:53:31;;;;;;;0.30;0.10;;;;;;;20.38;35.04;100220.86;1714932;81;21115;-88
2021/05/23 09:59:12;;;;;;;1.85;0.10;;;;;;;20.46;34.80;100220.41;1788205;78;23002;-90
2021/05/23 10:01:40;;;;;;;0.47;0.10;;;;;;;20.42;35.11;100220.11;1712911;80;21220;-90
2021/05/23 10:04:09;;;;;;;;;;;;;;;20.46;35.81;100215.55;1700614;82;21079;-89
2021/05/23 10:06:36;;;;;;;2.98;0.10;;;;;;;20.50;35.63;100213.95;1728718;82;20128;-90
2021/05/23 10:09:05;;;;;;;1.47;0.20;;;;;;;20.43;36.09;100213.60;1736074;79;21158;-89
2021/05/23 10:11:31;;;;;;;2.25;0.20;;;;;;;20.46;35.88;100210.13;1686275;83;21057;-88
2021/05/23 10:13:58;;;;;;;1.47;0.10;;;;;;;20.51;35.65;100212.34;1689147;83;21691;-89
2021/05/23 10:16:25;;;;;;;;;;;;;;;20.64;34.51;100208.40;1688952;83;22103;-89
2021/05/23 10:18:52;;;;;;;0.75;0.20;;;;;;;20.71;34.35;100215.78;1689624;84;20201;-89
2021/05/23 10:21:18;;;;;;;1.85;0.20;;;;;;;20.76;34.29;100215.02;1687220;83;21107;-90
2021/05/23 10:23:54;;;;;;;0.42;0.10;;;;;;;20.86;34.36;100214.27;1659790;85;21251;-89
2021/05/23 10:26:25;;;;;;;2.52;0.15;;;;;;;20.96;35.36;100221.11;1630607;86;21169;-89
2021/05/23 10:28:53;;;;;;;0.75;0.13;;;;;;;21.06;34.45;100221.20;1649483;85;21219;-89
2021/05/23 10:31:36;;;;;;;0.37;0.10;;;;;;;21.13;34.67;100220.41;1659379;84;21265;-88
2021/05/23 10:34:03;;;;;;;0.33;0.10;;;;;;;21.20;33.78;100210.16;1627233;86;21218;-87
2021/05/23 10:36:39;;;;;;;1.65;0.20;;;;;;;21.25;34.11;100220.23;1641937;86;21265;-91
2021/05/23 10:39:11;;;;;;;0.23;0.10;;;;;;;21.27;33.36;100222.68;1607542;87;21159;-88
2021/05/23 10:41:39;;;;;;;1.10;0.10;;;;;;;21.26;33.90;100225.10;1638652;86;21149;-89
2021/05/23 10:44:10;;;;;;;0.10;0.05;;;;;;;21.33;33.59;100221.62;1613734;87;21222;-90
2021/05/23 10:46:50;;;;;;;1.17;0.20;;;;;;;21.34;32.30;100224.08;1643338;86;22191;-89
2021/05/23 10:49:18;;;;;;;0.80;0.23;;;;;;;21.27;32.83;100222.68;1615033;86;21157;-89
2021/05/23 10:51:56;;;;;;;0.85;0.10;;;;;;;21.23;33.29;100218.84;1625780;87;21310;-90
2021/05/23 10:54:23;;;;;;;0.20;0.10;;;;;;;21.18;33.53;100217.73;1607881;87;21088;-90
2021/05/23 10:57:04;;;;;;;0.72;0.20;;;;;;;21.18;33.72;100233.19;1634945;86;21078;-91
2021/05/23 10:59:32;;;;;;;0.70;0.10;;;;;;;21.22;33.63;100228.06;1599548;88;21129;-89
2021/05/23 11:02:00;;;;;;;0.42;0.20;;;;;;;21.21;33.73;100221.84;1617678;87;21194;-90
2021/05/23 11:04:39;;;;;;;0.40;0.20;;;;;;;21.20;34.00;100223.70;1628063;87;21130;-90
2021/05/23 11:07:12;;;;;;;2.27;0.20;;;;;;;21.23;34.49;100221.55;1592168;87;21178;-90
2021/05/23 11:09:43;;;;;;;0.53;0.20;;;;;;;21.19;34.61;100226.67;1607915;87;21246;-89
2021/05/23 11:12:13;;;;;;;0.72;0.20;;;;;;;21.09;34.59;100217.13;1640987;84;21075;-88
2021/05/23 11:14:41;;;;;;;3.33;0.10;;;;;;;21.03;35.13;100212.77;1670596;85;21128;-90
2021/05/23 11:17:10;;;;;;;0.65;0.10;;;;;;;20.95;35.15;100210.01;1633460;86;21172;-90
2021/05/23 11:19:37;;;;;;;0.65;0.20;;;;;;;20.87;35.09;100206.41;1654078;85;21102;-90
2021/05/23 11:22:05;;;;;;;0.30;0.20;;;;;;;20.76;35.21;100220.44;1673526;84;21788;-89
2021/05/23 11:24:35;;;;;;;0.33;0.20;;;;;;;20.71;35.29;100209.01;1639315;86;21196;-90
2021/05/23 11:30:09;;;;;;;3.60;0.10;;;;;;;20.77;34.67;100213.92;1637065;82;21082;-89
2021/05/23 11:32:35;;;;;;;0.45;0.10;;;;;;;20.76;34.63;100212.31;1635317;83;21146;-88
2021/05/23 11:35:03;;;;;;;0.20;0.10;;;;;;;20.77;34.91;100216.09;1626090;87;21098;-90
2021/05/23 11:37:36;;;;;;;2.60;0.30;;;;;;;20.75;35.19;100211.47;1639845;86;21259;-90
2021/05/23 11:40:08;;;;;;;0.45;0.10;;;;;;;20.75;35.28;100212.83;1642065;86;21810;-90
2021/05/23 11:42:42;;;;;;;1.40;0.50;;;;;;;20.76;35.17;100214.47;1637730;86;21379;-88
2021/05/23 11:45:19;;;;;;;1.02;0.60;;;;;;;20.84;35.85;100219.14;1632149;85;21110;-89
2021/05/23 11:47:50;;;;;;;1.70;0.28;;;;;;;20.90;35.71;100209.96;1663658;84;21663;-90